Time;durP1;ratioP1;P1;durP2;ratioP2;P2;SDS_P1;SDS_P2;PMS_P1;PMS_P2;Temp;Humidity;BMP_temperature;BMP_pressure;BME280_temperature;BME280_humidity;BME280_pressure;Samples;Min_cycle;Max_cycle;Signal;HPM_P1;HPM_P2
2022/02/27 00:00:15;;;;;;;12.80;5.15;;;;;;;-3.70;84.14;98749.63;5031888;28;20565;-60
2022/02/27 00:02:42;;;;;;;9.68;4.53;;;;;;;-3.96;83.39;98752.59;5044691;28;20041;-61
2022/02/27 00:05:09;;;;;;;11.43;4.38;;;;;;;-3.93;84.46;98749.72;5023998;28;20042;-61
2022/02/27 00:07:36;;;;;;;13.20;5.43;;;;;;;-4.06;84.57;98756.94;5028193;28;20084;-61
2022/02/27 00:10:04;;;;;;;17.42;5.32;;;;;;;-3.80;85.30;98753.97;5044160;28;20053;-61
2022/02/27 00:12:31;;;;;;;15.52;4.88;;;;;;;-3.76;85.24;98752.78;5036428;28;20057;-61
2022/02/27 00:14:58;;;;;;;9.38;4.88;;;;;;;-4.23;83.60;98763.59;5038840;28;20075;-61
2022/02/27 00:17:24;;;;;;;10.52;4.03;;;;;;;-4.29;84.52;98746.41;5032224;28;20044;-61
2022/02/27 00:19:51;;;;;;;14.32;4.70;;;;;;;-4.05;84.52;98748.06;5042960;28;20076;-61
2022/02/27 00:22:18;;;;;;;17.90;5.22;;;;;;;-4.17;84.81;98752.53;5029880;28;20041;-61
2022/02/27 00:24:45;;;;;;;6.93;3.80;;;;;;;-4.19;84.81;98749.19;5026077;28;20053;-61
2022/02/27 00:27:13;;;;;;;14.07;5.28;;;;;;;-4.27;85.95;98749.81;5028218;28;20044;-61
2022/02/27 00:29:40;;;;;;;11.18;4.32;;;;;;;-4.15;85.75;98742.69;5025686;28;20045;-61
2022/02/27 00:32:07;;;;;;;10.23;4.40;;;;;;;-4.16;85.24;98741.00;5041254;28;20045;-61
2022/02/27 00:34:34;;;;;;;10.00;4.25;;;;;;;-4.20;85.00;98744.84;5046586;28;20075;-62
2022/02/27 00:37:01;;;;;;;9.90;4.30;;;;;;;-4.06;85.13;98738.44;5027020;28;20041;-61
2022/02/27 00:39:27;;;;;;;14.57;4.45;;;;;;;-4.02;84.38;98741.69;5045084;28;20223;-60
2022/02/27 00:41:54;;;;;;;8.63;4.57;;;;;;;-4.12;85.11;98747.72;5028793;28;20048;-61
2022/02/27 00:44:22;;;;;;;9.73;4.75;;;;;;;-4.00;85.96;98747.69;5026661;28;20493;-60
2022/02/27 00:46:49;;;;;;;13.05;4.47;;;;;;;-4.09;83.70;98752.75;5025228;28;20099;-61
2022/02/27 00:49:16;;;;;;;11.77;4.28;;;;;;;-4.18;83.87;98762.28;5027009;28;20085;-61
2022/02/27 00:51:43;;;;;;;9.25;3.33;;;;;;;-4.26;84.26;98759.41;5044110;28;20075;-60
2022/02/27 00:54:10;;;;;;;10.05;4.30;;;;;;;-4.19;84.77;98754.47;5061089;28;20174;-60
2022/02/27 00:56:37;;;;;;;9.73;4.22;;;;;;;-4.38;84.91;98755.09;5048470;28;20045;-58
2022/02/27 00:59:04;;;;;;;10.45;4.10;;;;;;;-4.64;84.32;98758.81;5030387;28;20056;-61
2022/02/27 01:01:32;;;;;;;9.43;3.65;;;;;;;-4.52;84.98;98756.19;5043452;28;20098;-62
2022/02/27 01:03:59;;;;;;;15.30;4.18;;;;;;;-4.47;85.55;98756.66;5043517;28;20041;-62
2022/02/27 01:06:26;;;;;;;10.10;4.63;;;;;;;-4.44;85.33;98756.41;5052889;28;20506;-62
2022/02/27 01:08:53;;;;;;;13.00;5.05;;;;;;;-4.45;85.37;98752.91;5052644;28;20048;-61
2022/02/27 01:11:19;;;;;;;9.93;4.97;;;;;;;-4.42;85.72;98749.22;5031329;28;20037;-62
2022/02/27 01:13:46;;;;;;;19.40;5.82;;;;;;;-4.62;85.08;98748.97;5025418;28;20081;-62
2022/02/27 01:16:13;;;;;;;10.13;4.85;;;;;;;-4.44;86.00;98753.78;5026474;28;20045;-62
2022/02/27 01:18:39;;;;;;;10.07;4.13;;;;;;;-4.45;85.56;98754.75;5041866;28;20041;-62
2022/02/27 01:21:07;;;;;;;15.85;5.00;;;;;;;-4.06;86.43;98752.50;5032110;28;20512;-62
2022/02/27 01:23:33;;;;;;;12.57;4.75;;;;;;;-4.37;84.81;98741.75;5026369;28;20535;-61
2022/02/27 01:26:00;;;;;;;9.48;4.57;;;;;;;-4.27;86.00;98746.31;5036243;28;20048;-62
2022/02/27 01:28:26;;;;;;;8.55;4.35;;;;;;;-4.28;84.63;98747.28;5044093;28;20132;-61
2022/02/27 01:30:54;;;;;;;8.60;3.80;;;;;;;-4.21;84.37;98737.84;5038334;28;20106;-61
2022/02/27 01:33:20;;;;;;;12.10;4.57;;;;;;;-4.19;86.52;98739.44;5041094;28;20167;-61
2022/02/27 01:35:47;;;;;;;11.38;4.07;;;;;;;-4.27;84.23;98735.72;5025150;28;20738;-61
2022/02/27 01:38:14;;;;;;;14.82;4.65;;;;;;;-4.59;85.53;98732.88;5026940;28;20467;-61
2022/02/27 01:40:40;;;;;;;11.23;4.00;;;;;;;-4.59;85.29;98718.81;5044784;28;20573;-61
2022/02/27 01:43:07;;;;;;;8.35;3.85;;;;;;;-4.70;85.91;98731.09;5044076;28;20534;-62
2022/02/27 01:45:37;;;;;;;12.63;4.82;;;;;;;-4.71;86.44;98718.00;5037694;28;20428;-62
2022/02/27 01:48:04;;;;;;;9.10;4.32;;;;;;;-4.83;85.52;98715.34;5043472;28;20060;-62
2022/02/27 01:50:30;;;;;;;8.27;3.95;;;;;;;-4.90;86.63;98714.13;5045175;28;20049;-62
2022/02/27 01:52:57;;;;;;;11.32;5.05;;;;;;;-4.64;87.38;98710.41;5045975;28;20459;-62
2022/02/27 01:55:24;;;;;;;12.88;4.15;;;;;;;-4.81;85.82;98711.72;5025423;28;20038;-62
2022/02/27 01:57:51;;;;;;;11.60;4.25;;;;;;;-4.93;86.08;98709.09;5023733;28;20057;-61
2022/02/27 02:00:18;;;;;;;14.90;3.42;;;;;;;-5.03;85.97;98718.69;5023981;28;20088;-62
2022/02/27 02:02:46;;;;;;;9.88;4.20;;;;;;;-4.73;88.66;98711.97;5039463;28;20048;-62
2022/02/27 02:05:15;;;;;;;6.63;3.65;;;;;;;-4.86;86.14;98715.56;5045173;28;20048;-61
2022/02/27 02:07:45;;;;;;;11.32;4.80;;;;;;;-4.60;86.34;98715.31;5046241;28;20037;-62
2022/02/27 02:10:11;;;;;;;8.70;3.50;;;;;;;-4.87;84.43;98705.97;5044769;28;20520;-62
2022/02/27 02:12:42;;;;;;;13.80;4.22;;;;;;;-5.05;86.64;98710.88;5028532;28;20048;-62
2022/02/27 02:15:11;;;;;;;8.27;3.70;;;;;;;-4.99;86.30;98712.22;5024314;28;20045;-62
2022/02/27 02:17:38;;;;;;;12.25;4.43;;;;;;;-4.84;86.38;98716.31;5033068;28;20132;-61
2022/02/27 02:20:06;;;;;;;9.43;3.88;;;;;;;-4.64;84.76;98715.69;5043678;28;20086;-61
2022/02/27 02:22:40;;;;;;;9.02;3.80;;;;;;;-4.74;85.42;98705.00;5044255;28;20056;-61
2022/02/27 02:25:08;;;;;;;13.02;3.88;;;;;;;-4.93;87.23;98706.47;5027246;28;20077;-60
2022/02/27 02:27:34;;;;;;;9.80;4.07;;;;;;;-4.98;85.83;98700.66;5024176;28;20045;-61
2022/02/27 02:30:03;;;;;;;12.52;4.53;;;;;;;-4.94;86.25;98704.75;5040662;28;20041;-62
2022/02/27 02:32:29;;;;;;;7.03;3.80;;;;;;;-5.08;86.64;98703.22;5040502;28;20037;-61
2022/02/27 02:34:59;;;;;;;8.35;3.70;;;;;;;-5.07;86.88;98696.09;5043631;28;20068;-62
2022/02/27 02:37:25;;;;;;;10.98;3.65;;;;;;;-5.35;86.52;98705.19;5024583;28;20056;-62
2022/02/27 02:39:53;;;;;;;10.52;3.55;;;;;;;-5.15;88.54;98694.06;5025829;28;20049;-61
2022/02/27 02:42:20;;;;;;;11.02;4.07;;;;;;;-5.28;87.67;98704.72;5044439;28;20499;-61
2022/02/27 02:44:49;;;;;;;8.48;4.13;;;;;;;-5.43;87.32;98689.09;5027289;28;20060;-62
2022/02/27 02:47:17;;;;;;;19.05;3.30;;;;;;;-5.44;87.30;98690.06;5028073;28;20041;-61
2022/02/27 02:49:48;;;;;;;9.33;4.33;;;;;;;-5.39;87.84;98687.91;5039970;28;20048;-61
2022/02/27 02:52:15;;;;;;;13.90;3.72;;;;;;;-5.32;88.52;98687.47;5047486;28;20358;-62
2022/02/27 02:54:42;;;;;;;8.35;3.95;;;;;;;-5.35;87.49;98688.50;5038286;28;20095;-62
2022/02/27 02:57:09;;;;;;;10.75;3.70;;;;;;;-5.51;86.79;98684.41;5042782;28;20037;-61
2022/02/27 02:59:35;;;;;;;6.78;3.55;;;;;;;-5.49;87.82;98682.50;5038255;28;20041;-62
2022/02/27 03:02:03;;;;;;;12.82;3.85;;;;;;;-5.40;87.41;98685.38;5036757;28;20048;-62
2022/02/27 03:04:30;;;;;;;12.73;3.88;;;;;;;-5.62;86.85;98682.59;5039765;28;20124;-62
2022/02/27 03:06:57;;;;;;;11.63;4.13;;;;;;;-5.46;88.95;98686.69;5054133;28;20048;-61
2022/02/27 03:09:23;;;;;;;11.05;4.05;;;;;;;-5.50;88.03;98691.38;5059012;28;20044;-61
2022/02/27 03:11:50;;;;;;;9.25;3.95;;;;;;;-5.51;87.78;98683.56;5042093;28;20053;-62
2022/02/27 03:14:16;;;;;;;8.63;3.83;;;;;;;-5.55;87.44;98684.75;5028926;28;20052;-61
2022/02/27 03:16:43;;;;;;;9.50;3.65;;;;;;;-5.69;87.45;98686.66;5030323;28;20049;-60
2022/02/27 03:19:10;;;;;;;8.27;3.97;;;;;;;-5.63;88.47;98680.88;5047994;28;20045;-61
2022/02/27 03:21:38;;;;;;;19.23;5.10;;;;;;;-5.68;88.10;98669.03;5048534;28;20610;-62
2022/02/27 03:24:06;;;;;;;13.27;3.97;;;;;;;-5.75;87.99;98680.03;5029861;28;20639;-62
2022/02/27 03:26:32;;;;;;;12.55;4.10;;;;;;;-5.73;88.36;98666.72;5047772;28;20106;-62
2022/02/27 03:28:59;;;;;;;10.40;4.45;;;;;;;-5.64;89.08;98675.75;5029552;28;20049;-62
2022/02/27 03:31:25;;;;;;;8.27;4.40;;;;;;;-5.40;89.41;98677.47;5035584;28;20072;-62
2022/02/27 03:33:52;;;;;;;13.00;3.95;;;;;;;-5.54;87.89;98681.16;5031099;28;20608;-62
2022/02/27 03:36:18;;;;;;;14.50;4.25;;;;;;;-5.49;88.26;98679.84;5027651;28;20067;-62
2022/02/27 03:38:45;;;;;;;11.52;3.40;;;;;;;-5.82;87.60;98685.88;5042473;28;20048;-62
2022/02/27 03:41:12;;;;;;;7.35;4.10;;;;;;;-5.77;88.98;98679.31;5047951;28;20755;-62
2022/02/27 03:43:39;;;;;;;9.63;3.88;;;;;;;-5.83;88.10;98685.03;5043360;28;20456;-62
2022/02/27 03:46:06;;;;;;;9.10;3.60;;;;;;;-5.87;88.22;98686.22;5046948;28;20041;-62
2022/02/27 03:48:32;;;;;;;6.85;3.90;;;;;;;-5.68;88.37;98683.03;5034024;28;20043;-62
2022/02/27 03:50:59;;;;;;;8.95;4.03;;;;;;;-5.81;88.05;98680.50;5027946;28;20045;-62
2022/02/27 03:53:26;;;;;;;12.90;3.95;;;;;;;-5.63;88.85;98680.06;5039926;28;20095;-61
2022/02/27 03:55:52;;;;;;;12.40;3.88;;;;;;;-5.79;87.26;98677.75;5048820;28;20669;-61
2022/02/27 03:58:19;;;;;;;9.13;3.58;;;;;;;-5.87;87.68;98684.44;5039571;28;20496;-61
2022/02/27 04:00:46;;;;;;;9.70;3.58;;;;;;;-5.80;88.24;98684.81;5047244;28;20049;-61
2022/02/27 04:03:13;;;;;;;6.50;3.72;;;;;;;-5.83;88.20;98676.28;5036313;28;20048;-62
2022/02/27 04:05:40;;;;;;;7.72;4.05;;;;;;;-5.90;87.77;98686.47;5060394;28;20045;-61
2022/02/27 04:08:08;;;;;;;10.73;3.33;;;;;;;-5.97;87.72;98683.41;5042306;28;20091;-62
2022/02/27 04:10:34;;;;;;;6.50;3.20;;;;;;;-6.02;88.17;98683.78;5044278;28;20049;-60
2022/02/27 04:13:01;;;;;;;10.27;3.72;;;;;;;-5.91;89.06;98690.88;5042603;28;20072;-61
2022/02/27 04:15:28;;;;;;;7.75;3.75;;;;;;;-6.02;87.93;98696.97;5039624;28;20041;-62
2022/02/27 04:17:55;;;;;;;11.00;3.88;;;;;;;-6.14;88.10;98697.88;5047483;28;20041;-61
2022/02/27 04:20:22;;;;;;;8.30;3.80;;;;;;;-6.01;89.55;98698.63;5044676;28;20036;-61
2022/02/27 04:22:49;;;;;;;9.98;4.20;;;;;;;-6.02;88.68;98702.22;5040593;28;20033;-61
2022/02/27 04:25:16;;;;;;;8.05;3.55;;;;;;;-6.02;88.40;98696.09;5031647;28;20033;-61
2022/02/27 04:27:43;;;;;;;8.90;3.70;;;;;;;-6.05;87.97;98697.22;5037457;28;20049;-62
2022/02/27 04:30:10;;;;;;;12.55;3.72;;;;;;;-6.04;88.09;98698.88;5039658;28;20041;-61
2022/02/27 04:32:36;;;;;;;11.00;3.67;;;;;;;-6.01;88.64;98690.72;5037572;28;20430;-61
2022/02/27 04:35:03;;;;;;;8.65;3.53;;;;;;;-5.90;89.23;98699.66;5046734;28;20727;-61
2022/02/27 04:37:30;;;;;;;8.25;2.83;;;;;;;-6.08;87.38;98696.59;5046465;28;20044;-62
2022/02/27 04:39:56;;;;;;;9.68;3.03;;;;;;;-6.27;87.40;98697.94;5036487;28;20045;-61
2022/02/27 04:42:23;;;;;;;7.47;3.22;;;;;;;-6.25;88.50;98687.28;5038898;28;20037;-61
2022/02/27 04:44:50;;;;;;;9.73;3.72;;;;;;;-6.06;89.47;98694.69;5027211;28;20053;-62
2022/02/27 04:47:16;;;;;;;11.00;4.13;;;;;;;-6.10;88.81;98695.84;5027235;28;20594;-61
2022/02/27 04:49:43;;;;;;;9.85;3.67;;;;;;;-6.22;88.43;98694.97;5043469;28;20056;-61
2022/02/27 04:52:11;;;;;;;8.88;3.95;;;;;;;-6.16;89.70;98702.44;5044691;28;20041;-61
2022/02/27 04:54:37;;;;;;;9.00;3.50;;;;;;;-6.14;88.53;98697.88;5051215;28;20049;-62
2022/02/27 04:57:04;;;;;;;7.40;3.20;;;;;;;-6.24;87.48;98700.34;5047749;28;20574;-59
2022/02/27 04:59:31;;;;;;;5.50;2.97;;;;;;;-6.24;88.23;98696.91;5044019;28;20041;-61
2022/02/27 05:01:57;;;;;;;10.23;4.15;;;;;;;-6.17;89.19;98696.31;5042955;28;20143;-61
2022/02/27 05:04:24;;;;;;;8.40;4.25;;;;;;;-6.03;88.98;98697.09;5057771;28;20450;-61
2022/02/27 05:06:50;;;;;;;11.05;3.83;;;;;;;-6.10;87.86;98698.50;5050919;28;20037;-61
2022/02/27 05:09:19;;;;;;;6.80;3.35;;;;;;;-6.17;87.77;98696.31;5046553;28;20088;-61
2022/02/27 05:11:48;;;;;;;8.27;3.95;;;;;;;-6.18;88.39;98699.91;5042915;28;20137;-61
2022/02/27 05:14:15;;;;;;;7.70;3.47;;;;;;;-6.17;88.50;98693.69;5026903;28;20157;-61
2022/02/27 05:16:42;;;;;;;6.38;3.33;;;;;;;-6.16;88.53;98690.09;5039484;28;20045;-61
2022/02/27 05:19:09;;;;;;;9.77;4.13;;;;;;;-6.02;89.01;98696.97;5042415;28;20124;-61
2022/02/27 05:21:36;;;;;;;12.48;3.92;;;;;;;-6.13;88.55;98699.56;5044059;28;20049;-61
2022/02/27 05:24:03;;;;;;;10.55;3.47;;;;;;;-6.18;88.59;98699.06;5038392;28;20048;-61
2022/02/27 05:26:29;;;;;;;7.40;3.92;;;;;;;-6.26;87.98;98699.63;5044761;28;20045;-60
2022/02/27 05:28:56;;;;;;;11.10;3.63;;;;;;;-6.23;89.02;98699.38;5032453;28;20449;-61
2022/02/27 05:31:24;;;;;;;9.05;3.78;;;;;;;-6.39;88.52;98707.56;5037008;28;20041;-61
2022/02/27 05:33:50;;;;;;;12.40;3.88;;;;;;;-6.41;88.71;98706.84;5046124;28;20056;-61
2022/02/27 05:36:17;;;;;;;12.25;4.93;;;;;;;-6.00;89.36;98707.41;5036666;28;20042;-61
2022/02/27 05:38:45;;;;;;;8.25;4.50;;;;;;;-6.08;88.72;98707.16;5044730;28;20114;-61
2022/02/27 05:41:13;;;;;;;14.60;4.80;;;;;;;-6.14;88.70;98714.56;5045381;28;20041;-61
2022/02/27 05:43:40;;;;;;;7.45;3.97;;;;;;;-6.19;88.93;98715.84;5045024;28;20044;-59
2022/02/27 05:46:08;;;;;;;15.90;4.82;;;;;;;-6.07;88.85;98714.09;5036615;28;20090;-61
2022/02/27 05:48:35;;;;;;;14.15;4.30;;;;;;;-6.19;88.65;98721.13;5040908;28;20038;-61
2022/02/27 05:51:01;;;;;;;6.50;3.17;;;;;;;-6.27;88.54;98719.88;5045147;28;20524;-61
2022/02/27 05:53:28;;;;;;;7.05;3.55;;;;;;;-6.23;89.41;98727.56;5042654;28;20036;-67
2022/02/27 05:55:56;;;;;;;11.73;3.47;;;;;;;-6.31;88.21;98718.41;5030664;28;20119;-64
2022/02/27 05:58:24;;;;;;;6.28;3.60;;;;;;;-6.33;88.83;98719.47;5025660;28;20042;-64
2022/02/27 06:00:52;;;;;;;16.15;4.85;;;;;;;-6.24;89.29;98729.34;5034877;28;20509;-65
2022/02/27 06:03:19;;;;;;;12.43;4.35;;;;;;;-5.93;89.47;98729.72;5033884;28;20033;-63
2022/02/27 06:05:46;;;;;;;14.60;4.80;;;;;;;-6.07;88.82;98730.78;5032269;28;20048;-64
2022/02/27 06:08:13;;;;;;;13.73;3.85;;;;;;;-5.93;88.31;98728.88;5038260;28;20055;-67
2022/02/27 06:10:39;;;;;;;7.55;3.75;;;;;;;-5.89;87.60;98735.63;5038351;28;20045;-64
2022/02/27 06:13:06;;;;;;;11.80;3.85;;;;;;;-5.91;87.68;98733.09;5036867;28;20057;-68
2022/02/27 06:15:32;;;;;;;9.15;4.22;;;;;;;-6.07;87.49;98741.31;5036350;28;20063;-63
2022/02/27 06:17:59;;;;;;;9.63;3.95;;;;;;;-6.18;87.12;98747.38;5032024;28;20051;-66
2022/02/27 06:20:25;;;;;;;8.70;4.20;;;;;;;-6.25;87.69;98742.63;5032222;28;20697;-65
2022/02/27 06:22:52;;;;;;;4.53;2.75;;;;;;;-6.29;88.31;98750.78;5038678;28;20110;-65
2022/02/27 06:25:19;;;;;;;8.93;3.95;;;;;;;-6.21;89.58;98749.38;5045801;28;20044;-64
2022/02/27 06:27:47;;;;;;;13.35;3.88;;;;;;;-6.30;87.98;98753.53;5037280;28;20037;-66
2022/02/27 06:30:19;;;;;;;7.78;3.90;;;;;;;-6.23;89.25;98754.75;5041111;28;20049;-68
2022/02/27 06:32:47;;;;;;;8.20;3.78;;;;;;;-6.19;88.65;98758.84;5028325;28;20045;-65
2022/02/27 06:35:16;;;;;;;6.63;3.55;;;;;;;-6.15;89.18;98762.97;5033102;28;20468;-65
2022/02/27 06:37:43;;;;;;;9.40;4.47;;;;;;;-6.12;89.18;98759.25;5029175;28;20045;-66
2022/02/27 06:40:11;;;;;;;13.02;4.22;;;;;;;-6.01;89.89;98759.31;5034861;28;20511;-65
2022/02/27 06:42:39;;;;;;;12.07;5.20;;;;;;;-5.91;88.74;98756.84;5045375;28;20067;-66
2022/02/27 06:45:06;;;;;;;10.63;4.18;;;;;;;-5.95;88.25;98758.00;5036683;28;20052;-67
2022/02/27 06:47:33;;;;;;;11.65;3.92;;;;;;;-5.85;88.05;98766.09;5036764;28;20049;-66
2022/02/27 06:50:00;;;;;;;12.00;4.55;;;;;;;-5.77;88.20;98773.44;5043899;28;20053;-66
2022/02/27 06:52:26;;;;;;;6.18;3.78;;;;;;;-5.64;88.51;98768.13;5037357;28;20041;-66
2022/02/27 06:54:53;;;;;;;15.10;4.38;;;;;;;-5.63;86.62;98764.50;5041225;28;20063;-66
2022/02/27 06:57:20;;;;;;;10.48;3.78;;;;;;;-5.79;86.55;98772.72;5048291;28;20052;-66
2022/02/27 06:59:46;;;;;;;11.02;4.13;;;;;;;-5.55;88.15;98771.84;5039864;28;20143;-66
2022/02/27 07:02:14;;;;;;;7.57;4.25;;;;;;;-5.62;86.79;98767.03;5041718;28;20044;-65
2022/02/27 07:04:41;;;;;;;9.48;4.32;;;;;;;-5.71;88.06;98767.72;5053034;28;20060;-66
2022/02/27 07:07:08;;;;;;;9.48;4.30;;;;;;;-5.66;88.66;98772.66;5053767;28;20508;-66
2022/02/27 07:09:35;;;;;;;9.60;4.53;;;;;;;-5.50;88.76;98772.34;5043011;28;20045;-65
2022/02/27 07:12:01;;;;;;;12.80;5.50;;;;;;;-5.40;88.64;98769.88;5038688;28;20083;-65
2022/02/27 07:14:28;;;;;;;15.55;5.78;;;;;;;-5.33;88.43;98775.53;5042578;28;20041;-64
2022/02/27 07:16:55;;;;;;;9.23;4.10;;;;;;;-5.31;88.02;98777.09;5046496;28;20045;-67
2022/02/27 07:19:24;;;;;;;12.52;5.70;;;;;;;-5.19;89.50;98785.91;5048273;28;20041;-66
2022/02/27 07:21:50;;;;;;;13.85;5.75;;;;;;;-4.90;89.90;98785.47;5047439;28;20041;-65
2022/02/27 07:24:18;;;;;;;13.93;5.40;;;;;;;-4.85;88.78;98779.84;5044332;28;20570;-66
2022/02/27 07:26:44;;;;;;;11.73;5.10;;;;;;;-4.78;89.00;98782.84;5046962;28;20048;-65
2022/02/27 07:29:11;;;;;;;9.95;4.45;;;;;;;-4.70;88.61;98791.03;5041141;28;20044;-65
2022/02/27 07:31:37;;;;;;;13.57;5.82;;;;;;;-4.67;88.45;98788.16;5034129;28;20049;-66
2022/02/27 07:34:04;;;;;;;11.65;5.07;;;;;;;-4.57;88.90;98797.03;5048144;28;20107;-65
2022/02/27 07:36:31;;;;;;;11.35;5.25;;;;;;;-4.37;89.79;98797.28;5028608;28;20045;-63
2022/02/27 07:38:57;;;;;;;14.70;5.60;;;;;;;-3.71;90.02;98792.13;5028708;28;20609;-66
2022/02/27 07:41:24;;;;;;;14.18;5.63;;;;;;;-3.70;88.25;98791.13;5039135;28;20041;-65
2022/02/27 07:43:55;;;;;;;12.52;5.03;;;;;;;-3.63;87.93;98792.31;5041635;28;20503;-65
2022/02/27 07:46:22;;;;;;;11.35;4.72;;;;;;;-3.46;87.81;98790.09;5045129;28;20036;-66
2022/02/27 07:48:48;;;;;;;13.63;6.53;;;;;;;-3.22;87.44;98799.63;5046853;28;20055;-66
2022/02/27 07:51:15;;;;;;;14.38;6.05;;;;;;;-2.99;88.45;98802.97;5042998;28;20041;-66
2022/02/27 07:53:41;;;;;;;19.25;7.10;;;;;;;-2.63;87.80;98800.00;5028093;28;20547;-67
2022/02/27 07:56:08;;;;;;;18.30;7.78;;;;;;;-2.33;87.23;98808.09;5030053;28;21088;-66
2022/02/27 07:58:34;;;;;;;19.15;6.80;;;;;;;-2.14;86.73;98804.69;5047129;28;20056;-66
2022/02/27 08:01:02;;;;;;;16.88;7.75;;;;;;;-1.96;86.06;98808.34;5041951;28;20041;-66
2022/02/27 08:03:29;;;;;;;13.27;6.55;;;;;;;-1.76;85.49;98795.13;5051802;28;20037;-67
2022/02/27 08:05:56;;;;;;;22.15;9.15;;;;;;;-1.62;84.73;98803.66;5040428;28;20049;-66
2022/02/27 08:08:28;;;;;;;17.55;8.45;;;;;;;-1.52;84.01;98804.50;5036498;28;20132;-67
2022/02/27 08:10:55;;;;;;;17.63;8.45;;;;;;;-1.45;83.68;98800.31;5033416;28;20052;-66
2022/02/27 08:13:21;;;;;;;15.20;7.10;;;;;;;-1.29;83.42;98812.19;5041070;28;20044;-69
2022/02/27 08:15:48;;;;;;;14.52;6.65;;;;;;;-1.17;82.86;98807.59;5034320;28;20128;-69
2022/02/27 08:18:16;;;;;;;18.35;7.40;;;;;;;-0.99;82.79;98804.22;5039218;28;20037;-55
2022/02/27 08:20:44;;;;;;;12.50;6.10;;;;;;;-0.94;81.92;98804.63;5048788;28;20044;-53
2022/02/27 08:23:10;;;;;;;15.40;6.30;;;;;;;-0.80;81.71;98806.84;5045911;28;20111;-53
2022/02/27 08:25:37;;;;;;;12.25;6.40;;;;;;;-0.63;81.40;98808.91;5040229;28;20049;-53
2022/02/27 08:28:03;;;;;;;13.40;6.00;;;;;;;-0.52;80.51;98806.06;5048229;28;20044;-56
2022/02/27 08:30:30;;;;;;;13.30;6.13;;;;;;;-0.56;80.03;98810.00;5028577;28;20056;-52
2022/02/27 08:32:57;;;;;;;16.75;6.07;;;;;;;-0.51;80.00;98802.44;5039736;28;20106;-56
2022/02/27 08:35:23;;;;;;;14.07;6.85;;;;;;;-0.47;79.76;98805.63;5040566;28;20085;-53
2022/02/27 08:37:50;;;;;;;14.88;6.90;;;;;;;-0.35;78.80;98798.31;5034252;28;20056;-65
2022/02/27 08:40:16;;;;;;;11.68;5.57;;;;;;;-0.33;79.45;98799.00;5035395;28;20044;-65
2022/02/27 08:42:43;;;;;;;15.82;5.93;;;;;;;-0.29;79.18;98789.75;5044710;28;20048;-66
2022/02/27 08:45:10;;;;;;;14.45;6.85;;;;;;;-0.26;79.29;98805.41;5039116;28;20408;-64
2022/02/27 08:47:37;;;;;;;17.15;6.95;;;;;;;-0.28;79.20;98802.06;5038093;28;20044;-65
2022/02/27 08:50:04;;;;;;;13.95;6.75;;;;;;;-0.18;78.95;98804.69;5049451;28;20052;-68
2022/02/27 08:52:37;;;;;;;10.20;5.85;;;;;;;-0.08;79.02;98804.66;5057763;28;20099;-67
2022/02/27 08:55:06;;;;;;;11.32;6.00;;;;;;;0.06;78.40;98811.28;5045252;28;20746;-68
2022/02/27 08:57:33;;;;;;;18.13;6.35;;;;;;;0.09;78.27;98814.50;5051201;28;20045;-66
2022/02/27 09:00:00;;;;;;;12.60;5.93;;;;;;;0.21;77.95;98808.97;5031402;28;20431;-68
2022/02/27 09:02:27;;;;;;;15.80;7.18;;;;;;;0.31;78.01;98814.22;5035216;28;20445;-67
2022/02/27 09:04:58;;;;;;;15.82;7.82;;;;;;;0.33;77.61;98806.94;5027235;28;20051;-66
2022/02/27 09:07:25;;;;;;;12.57;7.15;;;;;;;0.42;77.23;98807.84;5036887;28;20543;-67
2022/02/27 09:09:53;;;;;;;15.00;7.30;;;;;;;0.49;77.15;98807.13;5044122;28;20066;-67
2022/02/27 09:12:19;;;;;;;16.27;6.53;;;;;;;0.61;77.31;98802.41;5053773;28;20056;-66
2022/02/27 09:14:46;;;;;;;13.27;6.45;;;;;;;0.75;76.34;98792.19;5058164;28;20786;-67
2022/02/27 09:17:13;;;;;;;15.52;6.97;;;;;;;0.78;76.39;98794.53;5039061;28;20048;-67
2022/02/27 09:19:40;;;;;;;11.27;6.25;;;;;;;0.90;75.49;98792.47;5040957;28;20048;-65
2022/02/27 09:22:07;;;;;;;15.65;7.80;;;;;;;1.04;75.68;98793.75;5042639;28;20531;-67
2022/02/27 09:24:33;;;;;;;10.35;5.75;;;;;;;1.07;73.94;98790.75;5037942;28;20041;-68
2022/02/27 09:27:00;;;;;;;10.95;5.95;;;;;;;1.27;73.61;98790.56;5043853;28;20500;-66
2022/02/27 09:29:28;;;;;;;11.45;6.28;;;;;;;1.42;71.85;98786.34;5049348;28;20148;-67
2022/02/27 09:31:55;;;;;;;8.77;5.32;;;;;;;1.60;71.87;98779.25;5049275;28;20504;-66
2022/02/27 09:34:22;;;;;;;10.88;5.80;;;;;;;1.71;71.69;98780.78;5060153;28;20052;-68
2022/02/27 09:36:49;;;;;;;9.07;4.82;;;;;;;1.78;70.13;98773.81;5046467;28;20041;-67
2022/02/27 09:39:22;;;;;;;10.77;5.30;;;;;;;1.88;70.64;98774.53;5043101;28;20053;-67
2022/02/27 09:41:50;;;;;;;14.60;5.88;;;;;;;1.94;69.99;98773.91;5050260;28;20052;-64
2022/02/27 09:44:18;;;;;;;10.90;5.50;;;;;;;2.02;70.59;98767.72;5041451;28;20052;-66
2022/02/27 09:46:48;;;;;;;12.63;4.88;;;;;;;2.09;69.47;98781.28;5043440;28;20106;-67
2022/02/27 09:49:15;;;;;;;10.45;4.35;;;;;;;2.18;68.37;98763.44;5041066;28;20131;-65
2022/02/27 09:51:42;;;;;;;9.82;5.22;;;;;;;2.26;67.97;98770.63;5037410;28;20060;-67
2022/02/27 09:54:13;;;;;;;6.95;3.80;;;;;;;2.47;64.30;98768.34;5037210;28;20033;-65
2022/02/27 09:56:41;;;;;;;8.55;3.42;;;;;;;2.73;64.03;98774.56;5037910;28;20648;-65
2022/02/27 09:59:08;;;;;;;7.47;3.05;;;;;;;2.86;60.21;98774.03;5042586;28;20128;-68
2022/02/27 10:01:39;;;;;;;5.50;2.95;;;;;;;2.98;58.54;98777.22;5041680;28;20044;-63
2022/02/27 10:04:20;;;;;;;6.50;2.95;;;;;;;2.91;58.95;98784.25;5037691;28;20071;-67
2022/02/27 10:06:49;;;;;;;7.13;3.20;;;;;;;3.01;58.96;98771.53;5036210;28;20048;-65
2022/02/27 10:09:24;;;;;;;5.10;2.83;;;;;;;3.02;59.38;98772.38;5034288;28;20107;-66
2022/02/27 10:12:18;;;;;;;5.50;2.83;;;;;;;2.99;59.04;98778.91;5043304;28;20045;-66
2022/02/27 10:15:07;;;;;;;7.55;3.47;;;;;;;3.15;58.60;98771.84;5040039;28;20096;-66
2022/02/27 10:17:39;;;;;;;6.80;3.20;;;;;;;3.22;58.38;98768.34;5037006;28;20044;-67
2022/02/27 10:20:09;;;;;;;5.30;2.70;;;;;;;3.34;58.14;98784.88;5039737;28;20045;-68
2022/02/27 10:22:38;;;;;;;7.60;3.28;;;;;;;3.45;56.79;98764.94;5037887;28;20045;-67
2022/02/27 10:25:11;;;;;;;7.55;3.28;;;;;;;3.56;56.47;98770.94;5046806;28;20044;-67
2022/02/27 10:27:59;;;;;;;8.70;3.28;;;;;;;3.64;55.89;98766.41;5050545;28;20075;-65
2022/02/27 10:30:27;;;;;;;8.43;3.22;;;;;;;3.82;55.77;98768.00;5037568;28;20052;-67
2022/02/27 10:32:59;;;;;;;7.30;3.15;;;;;;;3.73;54.91;98761.81;5042314;28;20072;-65
2022/02/27 10:35:45;;;;;;;7.85;2.95;;;;;;;3.75;54.03;98769.69;5036386;28;20041;-65
2022/02/27 10:38:31;;;;;;;8.57;3.33;;;;;;;3.75;53.10;98767.88;5038785;28;20122;-66
2022/02/27 10:40:58;;;;;;;6.68;2.90;;;;;;;3.89;52.68;98763.63;5036603;28;20056;-65
2022/02/27 10:43:24;;;;;;;6.90;2.65;;;;;;;3.87;51.88;98764.81;5029901;28;20123;-66
2022/02/27 10:46:03;;;;;;;4.38;2.03;;;;;;;3.92;51.03;98745.50;5049705;28;20049;-66
2022/02/27 10:48:31;;;;;;;4.97;2.58;;;;;;;3.98;50.46;98742.97;5032154;28;20124;-64
2022/02/27 10:51:05;;;;;;;5.20;2.85;;;;;;;4.15;50.27;98754.47;5035678;28;20053;-66
2022/02/27 10:53:34;;;;;;;5.13;2.22;;;;;;;4.17;48.88;98738.19;5034590;28;20042;-64
2022/02/27 10:56:05;;;;;;;4.82;2.20;;;;;;;4.12;48.54;98740.53;5030612;28;20045;-67
2022/02/27 10:58:45;;;;;;;5.47;1.60;;;;;;;4.18;48.41;98734.50;5035120;28;20068;-67
2022/02/27 11:01:22;;;;;;;6.90;2.72;;;;;;;4.23;48.05;98747.34;5042427;28;20279;-66
2022/02/27 11:03:54;;;;;;;5.03;2.33;;;;;;;4.32;48.88;98740.09;5044538;28;20103;-67
2022/02/27 11:06:22;;;;;;;4.95;2.25;;;;;;;4.28;48.01;98737.78;5038820;28;20045;-67
2022/02/27 11:08:50;;;;;;;6.80;2.78;;;;;;;4.19;49.17;98743.34;5060921;28;20095;-66
2022/02/27 11:11:17;;;;;;;6.90;2.90;;;;;;;4.23;50.19;98729.44;5041230;28;20052;-66
2022/02/27 11:13:45;;;;;;;5.97;2.70;;;;;;;4.36;50.59;98726.19;5047949;28;20069;-70
2022/02/27 11:16:13;;;;;;;5.57;2.35;;;;;;;4.43;49.24;98721.75;5042890;28;20051;-67
2022/02/27 11:18:41;;;;;;;5.55;2.17;;;;;;;4.47;49.24;98718.72;5044616;28;20102;-66
2022/02/27 11:21:09;;;;;;;5.55;2.35;;;;;;;4.53;48.78;98718.00;5043736;28;20045;-68
2022/02/27 11:23:36;;;;;;;6.00;2.88;;;;;;;4.51;48.83;98709.31;5051323;28;20493;-67
2022/02/27 11:26:04;;;;;;;5.53;3.40;;;;;;;4.58;48.78;98704.06;5049159;28;20103;-66
2022/02/27 11:28:31;;;;;;;6.70;2.83;;;;;;;4.61;48.83;98707.19;5052644;28;20044;-66
2022/02/27 11:31:02;;;;;;;4.90;2.05;;;;;;;4.67;47.97;98709.19;5045107;28;20629;-66
2022/02/27 11:33:29;;;;;;;4.85;2.40;;;;;;;4.77;47.07;98713.44;5044088;28;20106;-65